X  Close Metar Aviation Weather Data     KVAD Moody Air Force Base
Temperature
57°F Temperature
54°F Dewpoint
88% Humidity



Wind
5 MPH
8 KM/H
2 M/S
4 KTS



340°
NNW
Current Conditions

Mostly Cloudy Mostly Cloudy
Pressure 1014.52 (hPa) - 29.96 (inHg)
Visibility 10 (mile) - 16.1 (km)
Airport
Airport-code KVAD

Location: Moody Air Force Base
Distance: 5 (mi)

Metar:
KVAD 280755Z AUTO 34004KT 10SM BKN031 14/12 A2996 RMK AO2 SLP146 T01380115 $

Time: 28-05-2023 07:55 EDT